sensor_id;sensor_type;location;lat;lon;timestamp;P1;durP1;ratioP1;P2;durP2;ratioP2
76409;SDS011;65238;42.662;23.280;2023-05-10T00:00:28;5.60;;;4.40;;
76409;SDS011;65238;42.662;23.280;2023-05-10T00:02:53;7.63;;;5.30;;
76409;SDS011;65238;42.662;23.280;2023-05-10T00:05:18;6.80;;;5.32;;
76409;SDS011;65238;42.662;23.280;2023-05-10T00:07:44;6.78;;;5.28;;
76409;SDS011;65238;42.662;23.280;2023-05-10T00:10:10;8.30;;;5.30;;
76409;SDS011;65238;42.662;23.280;2023-05-10T00:12:36;7.47;;;5.35;;
76409;SDS011;65238;42.662;23.280;2023-05-10T00:15:02;8.27;;;5.93;;
76409;SDS011;65238;42.662;23.280;2023-05-10T00:17:28;6.78;;;5.63;;
76409;SDS011;65238;42.662;23.280;2023-05-10T00:19:53;9.10;;;5.53;;
76409;SDS011;65238;42.662;23.280;2023-05-10T00:22:19;9.70;;;5.68;;
76409;SDS011;65238;42.662;23.280;2023-05-10T00:24:44;8.40;;;5.97;;
76409;SDS011;65238;42.662;23.280;2023-05-10T00:27:10;8.18;;;5.70;;
76409;SDS011;65238;42.662;23.280;2023-05-10T00:29:35;7.53;;;5.28;;
76409;SDS011;65238;42.662;23.280;2023-05-10T00:32:00;6.40;;;5.10;;
76409;SDS011;65238;42.662;23.280;2023-05-10T00:34:26;8.48;;;5.80;;
76409;SDS011;65238;42.662;23.280;2023-05-10T00:36:52;6.90;;;5.97;;
76409;SDS011;65238;42.662;23.280;2023-05-10T00:39:17;6.70;;;5.50;;
76409;SDS011;65238;42.662;23.280;2023-05-10T00:41:43;6.70;;;5.10;;
76409;SDS011;65238;42.662;23.280;2023-05-10T00:44:08;6.28;;;5.28;;
76409;SDS011;65238;42.662;23.280;2023-05-10T00:46:34;9.05;;;5.63;;
76409;SDS011;65238;42.662;23.280;2023-05-10T00:48:59;8.63;;;5.60;;
76409;SDS011;65238;42.662;23.280;2023-05-10T00:51:25;7.93;;;6.20;;
76409;SDS011;65238;42.662;23.280;2023-05-10T00:53:50;7.57;;;6.13;;
76409;SDS011;65238;42.662;23.280;2023-05-10T00:56:16;7.53;;;6.18;;
76409;SDS011;65238;42.662;23.280;2023-05-10T00:58:42;9.15;;;6.90;;
76409;SDS011;65238;42.662;23.280;2023-05-10T01:01:07;8.38;;;6.72;;
76409;SDS011;65238;42.662;23.280;2023-05-10T01:03:34;7.72;;;6.43;;
76409;SDS011;65238;42.662;23.280;2023-05-10T01:06:00;9.02;;;7.03;;
76409;SDS011;65238;42.662;23.280;2023-05-10T01:08:25;9.32;;;6.63;;
76409;SDS011;65238;42.662;23.280;2023-05-10T01:10:51;7.38;;;6.03;;
76409;SDS011;65238;42.662;23.280;2023-05-10T01:13:27;9.90;;;6.65;;
76409;SDS011;65238;42.662;23.280;2023-05-10T01:15:54;7.32;;;6.38;;
76409;SDS011;65238;42.662;23.280;2023-05-10T01:18:19;7.70;;;6.40;;
76409;SDS011;65238;42.662;23.280;2023-05-10T01:20:45;9.13;;;6.35;;
76409;SDS011;65238;42.662;23.280;2023-05-10T01:23:28;7.47;;;6.03;;
76409;SDS011;65238;42.662;23.280;2023-05-10T01:32:21;8.30;;;6.32;;
76409;SDS011;65238;42.662;23.280;2023-05-10T01:35:15;6.50;;;5.72;;
76409;SDS011;65238;42.662;23.280;2023-05-10T01:37:50;7.45;;;6.32;;
76409;SDS011;65238;42.662;23.280;2023-05-10T01:40:32;8.07;;;5.60;;
76409;SDS011;65238;42.662;23.280;2023-05-10T01:43:08;6.85;;;5.47;;
76409;SDS011;65238;42.662;23.280;2023-05-10T01:48:23;8.10;;;5.00;;
76409;SDS011;65238;42.662;23.280;2023-05-10T01:50:50;7.50;;;4.80;;
76409;SDS011;65238;42.662;23.280;2023-05-10T01:53:17;5.35;;;4.82;;
76409;SDS011;65238;42.662;23.280;2023-05-10T01:55:48;5.53;;;4.80;;
76409;SDS011;65238;42.662;23.280;2023-05-10T01:58:17;4.75;;;4.20;;
76409;SDS011;65238;42.662;23.280;2023-05-10T02:00:46;7.68;;;4.75;;
76409;SDS011;65238;42.662;23.280;2023-05-10T02:03:12;5.60;;;4.38;;
76409;SDS011;65238;42.662;23.280;2023-05-10T02:05:39;6.63;;;4.80;;
76409;SDS011;65238;42.662;23.280;2023-05-10T02:08:07;5.85;;;4.60;;
76409;SDS011;65238;42.662;23.280;2023-05-10T02:10:36;6.18;;;4.90;;
76409;SDS011;65238;42.662;23.280;2023-05-10T02:13:02;7.65;;;4.40;;
76409;SDS011;65238;42.662;23.280;2023-05-10T02:15:27;5.43;;;4.07;;
76409;SDS011;65238;42.662;23.280;2023-05-10T02:17:55;4.25;;;3.85;;
76409;SDS011;65238;42.662;23.280;2023-05-10T02:20:20;8.65;;;4.15;;
76409;SDS011;65238;42.662;23.280;2023-05-10T02:22:48;5.97;;;4.18;;
76409;SDS011;65238;42.662;23.280;2023-05-10T02:25:14;4.65;;;3.88;;
76409;SDS011;65238;42.662;23.280;2023-05-10T02:27:40;8.98;;;4.40;;
76409;SDS011;65238;42.662;23.280;2023-05-10T02:30:07;4.88;;;4.00;;
76409;SDS011;65238;42.662;23.280;2023-05-10T02:32:33;6.00;;;4.25;;
76409;SDS011;65238;42.662;23.280;2023-05-10T02:34:58;5.30;;;3.95;;
76409;SDS011;65238;42.662;23.280;2023-05-10T02:37:25;5.85;;;4.10;;
76409;SDS011;65238;42.662;23.280;2023-05-10T02:39:50;7.15;;;4.38;;
76409;SDS011;65238;42.662;23.280;2023-05-10T02:42:18;6.00;;;3.90;;
76409;SDS011;65238;42.662;23.280;2023-05-10T02:44:48;11.27;;;4.68;;
76409;SDS011;65238;42.662;23.280;2023-05-10T02:47:14;9.60;;;4.60;;
76409;SDS011;65238;42.662;23.280;2023-05-10T02:49:40;6.97;;;4.25;;
76409;SDS011;65238;42.662;23.280;2023-05-10T02:52:05;6.22;;;4.10;;
76409;SDS011;65238;42.662;23.280;2023-05-10T02:54:46;5.57;;;4.30;;
76409;SDS011;65238;42.662;23.280;2023-05-10T02:57:16;6.90;;;4.70;;
76409;SDS011;65238;42.662;23.280;2023-05-10T02:59:43;5.93;;;4.30;;
76409;SDS011;65238;42.662;23.280;2023-05-10T03:02:10;9.43;;;4.88;;
76409;SDS011;65238;42.662;23.280;2023-05-10T03:04:35;6.97;;;4.93;;
76409;SDS011;65238;42.662;23.280;2023-05-10T03:07:01;7.00;;;4.45;;
76409;SDS011;65238;42.662;23.280;2023-05-10T03:09:26;8.18;;;5.32;;
76409;SDS011;65238;42.662;23.280;2023-05-10T03:12:03;8.50;;;5.05;;
76409;SDS011;65238;42.662;23.280;2023-05-10T03:22:21;15.18;;;4.93;;
76409;SDS011;65238;42.662;23.280;2023-05-10T03:27:15;9.95;;;5.15;;
76409;SDS011;65238;42.662;23.280;2023-05-10T03:29:41;6.57;;;4.95;;
76409;SDS011;65238;42.662;23.280;2023-05-10T03:32:07;6.63;;;4.97;;
76409;SDS011;65238;42.662;23.280;2023-05-10T03:34:33;8.95;;;5.95;;
76409;SDS011;65238;42.662;23.280;2023-05-10T03:36:58;8.70;;;5.53;;
76409;SDS011;65238;42.662;23.280;2023-05-10T03:39:24;7.50;;;5.03;;
76409;SDS011;65238;42.662;23.280;2023-05-10T03:41:49;7.88;;;4.85;;
76409;SDS011;65238;42.662;23.280;2023-05-10T03:44:15;6.85;;;4.88;;
76409;SDS011;65238;42.662;23.280;2023-05-10T03:46:41;6.78;;;5.25;;
76409;SDS011;65238;42.662;23.280;2023-05-10T03:49:06;7.25;;;5.13;;
76409;SDS011;65238;42.662;23.280;2023-05-10T03:51:32;7.28;;;4.75;;
76409;SDS011;65238;42.662;23.280;2023-05-10T03:53:57;8.32;;;5.05;;
76409;SDS011;65238;42.662;23.280;2023-05-10T03:56:22;6.10;;;4.65;;
76409;SDS011;65238;42.662;23.280;2023-05-10T03:58:48;6.55;;;4.93;;
76409;SDS011;65238;42.662;23.280;2023-05-10T04:01:13;8.05;;;4.85;;
76409;SDS011;65238;42.662;23.280;2023-05-10T04:03:38;8.30;;;4.97;;
76409;SDS011;65238;42.662;23.280;2023-05-10T04:06:04;5.82;;;4.22;;
76409;SDS011;65238;42.662;23.280;2023-05-10T04:08:30;7.50;;;4.85;;
76409;SDS011;65238;42.662;23.280;2023-05-10T04:11:05;10.48;;;4.38;;
76409;SDS011;65238;42.662;23.280;2023-05-10T04:13:32;7.15;;;4.78;;
76409;SDS011;65238;42.662;23.280;2023-05-10T04:15:57;8.02;;;4.65;;
76409;SDS011;65238;42.662;23.280;2023-05-10T04:18:23;10.25;;;4.82;;
76409;SDS011;65238;42.662;23.280;2023-05-10T04:20:48;5.88;;;4.22;;
76409;SDS011;65238;42.662;23.280;2023-05-10T04:23:14;8.88;;;4.55;;
76409;SDS011;65238;42.662;23.280;2023-05-10T04:25:41;6.63;;;4.95;;
76409;SDS011;65238;42.662;23.280;2023-05-10T04:28:07;8.73;;;4.80;;
76409;SDS011;65238;42.662;23.280;2023-05-10T04:30:32;10.20;;;5.75;;
76409;SDS011;65238;42.662;23.280;2023-05-10T04:32:57;9.27;;;4.63;;
76409;SDS011;65238;42.662;23.280;2023-05-10T04:35:23;8.82;;;5.70;;
76409;SDS011;65238;42.662;23.280;2023-05-10T04:37:48;6.50;;;4.88;;
76409;SDS011;65238;42.662;23.280;2023-05-10T04:40:14;6.75;;;4.97;;
76409;SDS011;65238;42.662;23.280;2023-05-10T04:42:39;10.02;;;5.70;;
76409;SDS011;65238;42.662;23.280;2023-05-10T04:45:06;6.90;;;4.78;;
76409;SDS011;65238;42.662;23.280;2023-05-10T04:47:32;10.35;;;5.50;;
76409;SDS011;65238;42.662;23.280;2023-05-10T04:49:57;7.38;;;5.10;;
76409;SDS011;65238;42.662;23.280;2023-05-10T04:52:23;9.73;;;5.30;;
76409;SDS011;65238;42.662;23.280;2023-05-10T04:54:48;11.20;;;5.78;;
76409;SDS011;65238;42.662;23.280;2023-05-10T04:57:14;9.48;;;5.78;;
76409;SDS011;65238;42.662;23.280;2023-05-10T04:59:39;8.15;;;5.72;;
76409;SDS011;65238;42.662;23.280;2023-05-10T05:02:05;7.03;;;5.35;;
76409;SDS011;65238;42.662;23.280;2023-05-10T05:04:30;8.77;;;5.03;;
76409;SDS011;65238;42.662;23.280;2023-05-10T05:06:56;9.43;;;5.85;;
76409;SDS011;65238;42.662;23.280;2023-05-10T05:09:22;10.10;;;5.32;;
76409;SDS011;65238;42.662;23.280;2023-05-10T05:11:47;7.47;;;5.60;;
76409;SDS011;65238;42.662;23.280;2023-05-10T05:14:13;7.05;;;5.45;;
76409;SDS011;65238;42.662;23.280;2023-05-10T05:16:40;8.60;;;6.47;;
76409;SDS011;65238;42.662;23.280;2023-05-10T05:19:05;7.18;;;5.60;;
76409;SDS011;65238;42.662;23.280;2023-05-10T05:21:30;7.80;;;5.90;;
76409;SDS011;65238;42.662;23.280;2023-05-10T05:23:57;8.75;;;5.43;;
76409;SDS011;65238;42.662;23.280;2023-05-10T05:26:23;8.93;;;5.90;;
76409;SDS011;65238;42.662;23.280;2023-05-10T05:28:48;9.05;;;6.00;;
76409;SDS011;65238;42.662;23.280;2023-05-10T05:31:16;11.90;;;6.70;;
76409;SDS011;65238;42.662;23.280;2023-05-10T05:33:42;10.10;;;6.80;;
76409;SDS011;65238;42.662;23.280;2023-05-10T05:36:08;9.88;;;6.32;;
76409;SDS011;65238;42.662;23.280;2023-05-10T05:38:34;11.10;;;6.28;;
76409;SDS011;65238;42.662;23.280;2023-05-10T05:40:59;11.18;;;6.47;;
76409;SDS011;65238;42.662;23.280;2023-05-10T05:43:25;13.35;;;7.15;;
76409;SDS011;65238;42.662;23.280;2023-05-10T05:45:51;17.55;;;6.95;;
76409;SDS011;65238;42.662;23.280;2023-05-10T05:48:18;14.98;;;7.18;;
76409;SDS011;65238;42.662;23.280;2023-05-10T05:50:43;9.98;;;6.82;;
76409;SDS011;65238;42.662;23.280;2023-05-10T05:53:09;15.32;;;7.60;;
76409;SDS011;65238;42.662;23.280;2023-05-10T05:55:34;15.20;;;7.13;;
76409;SDS011;65238;42.662;23.280;2023-05-10T05:58:00;11.57;;;7.72;;
76409;SDS011;65238;42.662;23.280;2023-05-10T06:00:25;13.85;;;8.20;;
76409;SDS011;65238;42.662;23.280;2023-05-10T06:02:51;16.77;;;8.48;;
76409;SDS011;65238;42.662;23.280;2023-05-10T06:05:17;13.57;;;8.38;;
76409;SDS011;65238;42.662;23.280;2023-05-10T06:07:42;10.77;;;7.70;;
76409;SDS011;65238;42.662;23.280;2023-05-10T06:10:08;10.80;;;7.00;;
76409;SDS011;65238;42.662;23.280;2023-05-10T06:12:34;14.18;;;8.70;;
76409;SDS011;65238;42.662;23.280;2023-05-10T06:14:59;12.68;;;8.43;;
76409;SDS011;65238;42.662;23.280;2023-05-10T06:17:25;15.25;;;8.25;;
76409;SDS011;65238;42.662;23.280;2023-05-10T06:19:50;14.63;;;8.88;;
76409;SDS011;65238;42.662;23.280;2023-05-10T06:22:16;13.25;;;9.13;;
76409;SDS011;65238;42.662;23.280;2023-05-10T06:24:41;15.02;;;9.23;;
76409;SDS011;65238;42.662;23.280;2023-05-10T06:27:06;13.55;;;8.30;;
76409;SDS011;65238;42.662;23.280;2023-05-10T06:29:32;14.70;;;9.25;;
76409;SDS011;65238;42.662;23.280;2023-05-10T06:31:58;13.82;;;8.50;;
76409;SDS011;65238;42.662;23.280;2023-05-10T06:34:23;15.82;;;9.00;;
76409;SDS011;65238;42.662;23.280;2023-05-10T06:36:49;12.02;;;8.20;;
76409;SDS011;65238;42.662;23.280;2023-05-10T06:39:15;14.68;;;8.80;;
76409;SDS011;65238;42.662;23.280;2023-05-10T06:41:40;13.27;;;9.00;;
76409;SDS011;65238;42.662;23.280;2023-05-10T06:44:06;15.00;;;9.30;;
76409;SDS011;65238;42.662;23.280;2023-05-10T06:46:32;15.75;;;9.45;;
76409;SDS011;65238;42.662;23.280;2023-05-10T06:48:57;13.90;;;9.05;;
76409;SDS011;65238;42.662;23.280;2023-05-10T06:51:23;15.73;;;9.25;;
76409;SDS011;65238;42.662;23.280;2023-05-10T06:53:49;14.70;;;9.30;;
76409;SDS011;65238;42.662;23.280;2023-05-10T06:56:14;14.32;;;8.60;;
76409;SDS011;65238;42.662;23.280;2023-05-10T06:58:39;14.18;;;8.85;;
76409;SDS011;65238;42.662;23.280;2023-05-10T07:01:05;10.75;;;7.20;;
76409;SDS011;65238;42.662;23.280;2023-05-10T07:03:31;14.90;;;9.00;;
76409;SDS011;65238;42.662;23.280;2023-05-10T07:06:00;11.77;;;8.13;;
76409;SDS011;65238;42.662;23.280;2023-05-10T07:08:28;15.82;;;8.50;;
76409;SDS011;65238;42.662;23.280;2023-05-10T07:10:58;11.95;;;7.70;;
76409;SDS011;65238;42.662;23.280;2023-05-10T07:13:32;13.02;;;8.27;;
76409;SDS011;65238;42.662;23.280;2023-05-10T07:15:58;15.07;;;9.85;;
76409;SDS011;65238;42.662;23.280;2023-05-10T07:18:24;14.48;;;8.95;;
76409;SDS011;65238;42.662;23.280;2023-05-10T07:20:49;17.00;;;9.70;;
76409;SDS011;65238;42.662;23.280;2023-05-10T07:23:15;11.70;;;8.02;;
76409;SDS011;65238;42.662;23.280;2023-05-10T07:25:44;11.95;;;8.20;;
76409;SDS011;65238;42.662;23.280;2023-05-10T07:28:10;14.13;;;8.63;;
76409;SDS011;65238;42.662;23.280;2023-05-10T07:30:35;23.15;;;14.80;;
76409;SDS011;65238;42.662;23.280;2023-05-10T07:33:01;16.55;;;10.50;;
76409;SDS011;65238;42.662;23.280;2023-05-10T07:35:26;12.73;;;8.52;;
76409;SDS011;65238;42.662;23.280;2023-05-10T07:37:52;15.02;;;8.70;;
76409;SDS011;65238;42.662;23.280;2023-05-10T07:40:17;17.30;;;9.63;;
76409;SDS011;65238;42.662;23.280;2023-05-10T07:42:42;12.55;;;8.50;;
76409;SDS011;65238;42.662;23.280;2023-05-10T07:45:08;12.95;;;8.68;;
76409;SDS011;65238;42.662;23.280;2023-05-10T07:47:34;16.63;;;9.63;;
76409;SDS011;65238;42.662;23.280;2023-05-10T07:49:59;11.90;;;8.35;;
76409;SDS011;65238;42.662;23.280;2023-05-10T07:52:25;12.52;;;8.30;;
76409;SDS011;65238;42.662;23.280;2023-05-10T07:54:50;13.73;;;8.93;;
76409;SDS011;65238;42.662;23.280;2023-05-10T07:57:15;15.13;;;10.13;;
76409;SDS011;65238;42.662;23.280;2023-05-10T07:59:42;19.90;;;9.45;;
76409;SDS011;65238;42.662;23.280;2023-05-10T08:02:08;16.10;;;10.27;;
76409;SDS011;65238;42.662;23.280;2023-05-10T08:04:34;14.80;;;9.15;;
76409;SDS011;65238;42.662;23.280;2023-05-10T08:06:59;13.85;;;8.32;;
76409;SDS011;65238;42.662;23.280;2023-05-10T08:09:24;13.98;;;9.35;;
76409;SDS011;65238;42.662;23.280;2023-05-10T08:11:50;17.55;;;10.00;;
76409;SDS011;65238;42.662;23.280;2023-05-10T08:14:16;20.38;;;9.55;;
76409;SDS011;65238;42.662;23.280;2023-05-10T08:16:41;18.35;;;9.43;;
76409;SDS011;65238;42.662;23.280;2023-05-10T08:19:07;15.13;;;9.80;;
76409;SDS011;65238;42.662;23.280;2023-05-10T08:21:32;15.07;;;9.23;;
76409;SDS011;65238;42.662;23.280;2023-05-10T08:23:58;14.07;;;8.75;;
76409;SDS011;65238;42.662;23.280;2023-05-10T08:26:23;18.05;;;7.68;;
76409;SDS011;65238;42.662;23.280;2023-05-10T08:28:49;13.30;;;9.05;;
76409;SDS011;65238;42.662;23.280;2023-05-10T08:31:14;14.57;;;8.90;;
76409;SDS011;65238;42.662;23.280;2023-05-10T08:33:40;14.63;;;9.88;;
76409;SDS011;65238;42.662;23.280;2023-05-10T08:36:06;14.32;;;8.85;;
76409;SDS011;65238;42.662;23.280;2023-05-10T08:38:31;16.15;;;9.52;;
76409;SDS011;65238;42.662;23.280;2023-05-10T08:40:57;12.63;;;8.85;;
76409;SDS011;65238;42.662;23.280;2023-05-10T08:43:24;14.48;;;9.32;;
76409;SDS011;65238;42.662;23.280;2023-05-10T08:45:53;15.27;;;8.90;;
76409;SDS011;65238;42.662;23.280;2023-05-10T08:48:19;14.82;;;9.10;;
76409;SDS011;65238;42.662;23.280;2023-05-10T08:50:48;12.35;;;8.63;;
76409;SDS011;65238;42.662;23.280;2023-05-10T08:53:14;14.90;;;9.73;;
76409;SDS011;65238;42.662;23.280;2023-05-10T08:55:40;12.13;;;8.18;;
76409;SDS011;65238;42.662;23.280;2023-05-10T08:58:07;13.73;;;9.15;;
76409;SDS011;65238;42.662;23.280;2023-05-10T09:00:33;16.27;;;9.63;;
76409;SDS011;65238;42.662;23.280;2023-05-10T09:02:59;13.95;;;8.82;;
76409;SDS011;65238;42.662;23.280;2023-05-10T09:05:25;15.05;;;9.68;;
76409;SDS011;65238;42.662;23.280;2023-05-10T09:07:50;16.27;;;10.25;;
76409;SDS011;65238;42.662;23.280;2023-05-10T09:10:16;12.23;;;9.10;;
76409;SDS011;65238;42.662;23.280;2023-05-10T09:12:42;15.57;;;9.55;;
76409;SDS011;65238;42.662;23.280;2023-05-10T09:15:09;11.75;;;9.50;;
76409;SDS011;65238;42.662;23.280;2023-05-10T09:17:34;17.73;;;9.98;;
76409;SDS011;65238;42.662;23.280;2023-05-10T09:20:01;14.40;;;10.02;;
76409;SDS011;65238;42.662;23.280;2023-05-10T09:22:29;13.32;;;10.02;;
76409;SDS011;65238;42.662;23.280;2023-05-10T09:25:08;16.05;;;10.60;;
76409;SDS011;65238;42.662;23.280;2023-05-10T09:27:39;13.57;;;9.80;;
76409;SDS011;65238;42.662;23.280;2023-05-10T09:30:05;17.00;;;10.30;;
76409;SDS011;65238;42.662;23.280;2023-05-10T09:35:07;13.48;;;9.23;;
76409;SDS011;65238;42.662;23.280;2023-05-10T09:37:34;13.40;;;9.77;;
76409;SDS011;65238;42.662;23.280;2023-05-10T09:39:59;14.68;;;9.80;;
76409;SDS011;65238;42.662;23.280;2023-05-10T09:42:25;14.23;;;9.70;;
76409;SDS011;65238;42.662;23.280;2023-05-10T09:44:50;14.32;;;9.32;;
76409;SDS011;65238;42.662;23.280;2023-05-10T09:47:19;13.93;;;10.63;;
76409;SDS011;65238;42.662;23.280;2023-05-10T09:49:49;16.42;;;10.20;;
76409;SDS011;65238;42.662;23.280;2023-05-10T09:52:16;12.73;;;8.70;;
76409;SDS011;65238;42.662;23.280;2023-05-10T09:54:44;13.88;;;9.43;;
76409;SDS011;65238;42.662;23.280;2023-05-10T09:57:20;15.25;;;9.43;;
76409;SDS011;65238;42.662;23.280;2023-05-10T09:59:47;15.05;;;9.77;;
76409;SDS011;65238;42.662;23.280;2023-05-10T10:02:12;16.40;;;9.80;;
76409;SDS011;65238;42.662;23.280;2023-05-10T10:04:41;13.40;;;9.82;;
76409;SDS011;65238;42.662;23.280;2023-05-10T10:07:07;11.85;;;8.88;;
76409;SDS011;65238;42.662;23.280;2023-05-10T10:09:33;12.52;;;9.65;;
76409;SDS011;65238;42.662;23.280;2023-05-10T10:11:59;14.73;;;10.15;;
76409;SDS011;65238;42.662;23.280;2023-05-10T10:14:25;15.40;;;10.23;;
76409;SDS011;65238;42.662;23.280;2023-05-10T10:16:51;13.77;;;9.40;;
76409;SDS011;65238;42.662;23.280;2023-05-10T10:19:20;14.15;;;8.70;;
76409;SDS011;65238;42.662;23.280;2023-05-10T10:21:51;18.67;;;11.77;;
76409;SDS011;65238;42.662;23.280;2023-05-10T10:24:16;15.63;;;9.75;;
76409;SDS011;65238;42.662;23.280;2023-05-10T10:26:42;14.25;;;9.18;;
76409;SDS011;65238;42.662;23.280;2023-05-10T10:31:47;12.45;;;9.13;;
76409;SDS011;65238;42.662;23.280;2023-05-10T10:36:51;13.35;;;8.75;;
76409;SDS011;65238;42.662;23.280;2023-05-10T10:39:17;16.58;;;8.98;;
76409;SDS011;65238;42.662;23.280;2023-05-10T10:41:50;19.52;;;8.98;;
76409;SDS011;65238;42.662;23.280;2023-05-10T10:55:04;10.13;;;7.25;;
76409;SDS011;65238;42.662;23.280;2023-05-10T10:57:42;12.00;;;8.13;;
76409;SDS011;65238;42.662;23.280;2023-05-10T11:05:34;17.73;;;9.27;;
76409;SDS011;65238;42.662;23.280;2023-05-10T11:08:09;12.73;;;8.27;;
76409;SDS011;65238;42.662;23.280;2023-05-10T11:10:36;15.20;;;8.32;;
76409;SDS011;65238;42.662;23.280;2023-05-10T11:13:02;17.13;;;8.10;;
76409;SDS011;65238;42.662;23.280;2023-05-10T11:15:33;12.90;;;8.50;;
76409;SDS011;65238;42.662;23.280;2023-05-10T11:17:59;13.82;;;7.70;;
76409;SDS011;65238;42.662;23.280;2023-05-10T11:20:28;13.70;;;7.68;;
76409;SDS011;65238;42.662;23.280;2023-05-10T11:22:58;12.27;;;7.75;;
76409;SDS011;65238;42.662;23.280;2023-05-10T11:25:40;10.60;;;7.88;;
76409;SDS011;65238;42.662;23.280;2023-05-10T11:28:10;8.80;;;7.55;;
76409;SDS011;65238;42.662;23.280;2023-05-10T11:30:38;10.50;;;8.15;;
76409;SDS011;65238;42.662;23.280;2023-05-10T11:33:05;14.07;;;7.38;;
76409;SDS011;65238;42.662;23.280;2023-05-10T11:35:37;14.57;;;8.70;;
76409;SDS011;65238;42.662;23.280;2023-05-10T11:38:05;10.25;;;7.45;;
76409;SDS011;65238;42.662;23.280;2023-05-10T11:40:31;10.07;;;7.22;;
76409;SDS011;65238;42.662;23.280;2023-05-10T11:42:56;14.23;;;8.32;;
76409;SDS011;65238;42.662;23.280;2023-05-10T11:45:23;13.95;;;9.13;;
76409;SDS011;65238;42.662;23.280;2023-05-10T11:47:52;10.25;;;7.82;;
76409;SDS011;65238;42.662;23.280;2023-05-10T11:50:17;10.57;;;7.72;;
76409;SDS011;65238;42.662;23.280;2023-05-10T11:52:43;11.05;;;7.80;;
76409;SDS011;65238;42.662;23.280;2023-05-10T11:55:08;12.43;;;7.28;;
76409;SDS011;65238;42.662;23.280;2023-05-10T11:57:34;11.70;;;7.90;;
76409;SDS011;65238;42.662;23.280;2023-05-10T12:00:00;15.98;;;7.90;;
76409;SDS011;65238;42.662;23.280;2023-05-10T12:02:28;13.98;;;8.45;;
76409;SDS011;65238;42.662;23.280;2023-05-10T12:04:54;12.20;;;8.20;;
76409;SDS011;65238;42.662;23.280;2023-05-10T12:07:20;12.60;;;8.40;;
76409;SDS011;65238;42.662;23.280;2023-05-10T12:12:43;13.32;;;8.52;;
76409;SDS011;65238;42.662;23.280;2023-05-10T12:15:20;13.23;;;8.15;;
76409;SDS011;65238;42.662;23.280;2023-05-10T12:17:50;12.20;;;8.82;;
76409;SDS011;65238;42.662;23.280;2023-05-10T12:22:52;14.43;;;8.98;;
76409;SDS011;65238;42.662;23.280;2023-05-10T12:25:18;11.40;;;8.40;;
76409;SDS011;65238;42.662;23.280;2023-05-10T12:27:50;11.10;;;8.45;;
76409;SDS011;65238;42.662;23.280;2023-05-10T12:30:20;11.32;;;8.75;;
76409;SDS011;65238;42.662;23.280;2023-05-10T12:32:47;10.98;;;8.45;;
76409;SDS011;65238;42.662;23.280;2023-05-10T12:35:12;17.60;;;8.50;;
76409;SDS011;65238;42.662;23.280;2023-05-10T12:37:37;15.77;;;9.65;;
76409;SDS011;65238;42.662;23.280;2023-05-10T12:40:06;16.13;;;9.27;;
76409;SDS011;65238;42.662;23.280;2023-05-10T12:42:34;14.50;;;8.48;;
76409;SDS011;65238;42.662;23.280;2023-05-10T12:45:00;13.95;;;9.25;;
76409;SDS011;65238;42.662;23.280;2023-05-10T12:47:27;12.93;;;9.20;;
76409;SDS011;65238;42.662;23.280;2023-05-10T12:49:55;14.57;;;8.68;;
76409;SDS011;65238;42.662;23.280;2023-05-10T12:52:20;14.38;;;9.23;;
76409;SDS011;65238;42.662;23.280;2023-05-10T12:54:46;13.43;;;9.30;;
76409;SDS011;65238;42.662;23.280;2023-05-10T12:57:12;18.58;;;9.55;;
76409;SDS011;65238;42.662;23.280;2023-05-10T12:59:38;12.75;;;9.13;;
76409;SDS011;65238;42.662;23.280;2023-05-10T13:02:03;15.75;;;9.55;;
76409;SDS011;65238;42.662;23.280;2023-05-10T13:04:29;11.70;;;8.75;;
76409;SDS011;65238;42.662;23.280;2023-05-10T13:06:54;16.52;;;9.07;;
76409;SDS011;65238;42.662;23.280;2023-05-10T13:09:23;12.30;;;8.50;;
76409;SDS011;65238;42.662;23.280;2023-05-10T13:11:53;14.48;;;9.13;;
76409;SDS011;65238;42.662;23.280;2023-05-10T13:14:19;13.88;;;9.50;;
76409;SDS011;65238;42.662;23.280;2023-05-10T13:16:45;15.07;;;8.80;;
76409;SDS011;65238;42.662;23.280;2023-05-10T13:19:12;15.77;;;8.25;;
76409;SDS011;65238;42.662;23.280;2023-05-10T13:21:38;12.38;;;8.73;;
76409;SDS011;65238;42.662;23.280;2023-05-10T13:24:03;12.23;;;8.73;;
76409;SDS011;65238;42.662;23.280;2023-05-10T13:26:29;12.15;;;8.77;;
76409;SDS011;65238;42.662;23.280;2023-05-10T13:28:54;16.25;;;8.95;;
76409;SDS011;65238;42.662;23.280;2023-05-10T13:31:20;16.65;;;9.52;;
76409;SDS011;65238;42.662;23.280;2023-05-10T13:33:46;14.48;;;10.18;;
76409;SDS011;65238;42.662;23.280;2023-05-10T13:36:11;15.50;;;8.75;;
76409;SDS011;65238;42.662;23.280;2023-05-10T13:38:37;13.15;;;8.35;;
76409;SDS011;65238;42.662;23.280;2023-05-10T13:41:02;15.80;;;8.65;;
76409;SDS011;65238;42.662;23.280;2023-05-10T13:43:28;13.90;;;9.02;;
76409;SDS011;65238;42.662;23.280;2023-05-10T13:45:54;12.93;;;9.30;;
76409;SDS011;65238;42.662;23.280;2023-05-10T13:48:20;14.85;;;8.38;;
76409;SDS011;65238;42.662;23.280;2023-05-10T13:50:46;12.52;;;8.35;;
76409;SDS011;65238;42.662;23.280;2023-05-10T13:53:11;11.65;;;8.25;;
76409;SDS011;65238;42.662;23.280;2023-05-10T13:55:37;11.18;;;8.48;;
76409;SDS011;65238;42.662;23.280;2023-05-10T13:58:02;10.95;;;8.30;;
76409;SDS011;65238;42.662;23.280;2023-05-10T14:00:28;12.40;;;8.35;;
76409;SDS011;65238;42.662;23.280;2023-05-10T14:02:53;11.73;;;7.97;;
76409;SDS011;65238;42.662;23.280;2023-05-10T14:05:19;11.45;;;8.35;;
76409;SDS011;65238;42.662;23.280;2023-05-10T14:07:45;12.57;;;8.27;;
76409;SDS011;65238;42.662;23.280;2023-05-10T14:10:10;14.15;;;8.85;;
76409;SDS011;65238;42.662;23.280;2023-05-10T14:12:36;12.05;;;8.52;;
76409;SDS011;65238;42.662;23.280;2023-05-10T14:15:01;16.40;;;8.20;;
76409;SDS011;65238;42.662;23.280;2023-05-10T14:17:27;10.65;;;7.82;;
76409;SDS011;65238;42.662;23.280;2023-05-10T14:19:53;12.30;;;8.25;;
76409;SDS011;65238;42.662;23.280;2023-05-10T14:22:19;12.68;;;8.85;;
76409;SDS011;65238;42.662;23.280;2023-05-10T14:24:44;12.93;;;8.45;;
76409;SDS011;65238;42.662;23.280;2023-05-10T14:27:12;13.27;;;8.82;;
76409;SDS011;65238;42.662;23.280;2023-05-10T14:29:37;14.57;;;8.10;;
76409;SDS011;65238;42.662;23.280;2023-05-10T14:32:03;14.55;;;8.30;;
76409;SDS011;65238;42.662;23.280;2023-05-10T14:34:28;12.60;;;8.23;;
76409;SDS011;65238;42.662;23.280;2023-05-10T14:36:54;13.88;;;8.50;;
76409;SDS011;65238;42.662;23.280;2023-05-10T14:39:20;11.88;;;8.35;;
76409;SDS011;65238;42.662;23.280;2023-05-10T14:41:45;14.77;;;8.90;;
76409;SDS011;65238;42.662;23.280;2023-05-10T14:44:12;13.73;;;8.45;;
76409;SDS011;65238;42.662;23.280;2023-05-10T14:46:37;15.40;;;8.70;;
76409;SDS011;65238;42.662;23.280;2023-05-10T14:49:03;15.18;;;8.40;;
76409;SDS011;65238;42.662;23.280;2023-05-10T14:51:29;15.43;;;9.23;;
76409;SDS011;65238;42.662;23.280;2023-05-10T14:53:54;14.95;;;9.07;;
76409;SDS011;65238;42.662;23.280;2023-05-10T14:56:20;11.60;;;8.43;;
76409;SDS011;65238;42.662;23.280;2023-05-10T14:58:46;16.63;;;9.50;;
76409;SDS011;65238;42.662;23.280;2023-05-10T15:01:11;14.23;;;8.07;;
76409;SDS011;65238;42.662;23.280;2023-05-10T15:03:37;12.18;;;8.35;;
76409;SDS011;65238;42.662;23.280;2023-05-10T15:06:03;12.80;;;8.25;;
76409;SDS011;65238;42.662;23.280;2023-05-10T15:08:29;12.43;;;8.00;;
76409;SDS011;65238;42.662;23.280;2023-05-10T15:10:54;13.63;;;8.25;;